sensor_id;sensor_type;location;lat;lon;timestamp;pressure;altitude;pressure_sealevel;temperature;humidity
48404;BME280;34202;52.536;6.042;2022-07-05T00:02:48;102202.59;;;15.32;69.95
48404;BME280;34202;52.536;6.042;2022-07-05T00:07:48;102201.12;;;15.24;70.18
48404;BME280;34202;52.536;6.042;2022-07-05T00:12:49;102205.09;;;15.18;70.43
48404;BME280;34202;52.536;6.042;2022-07-05T00:17:49;102199.77;;;15.13;70.54
48404;BME280;34202;52.536;6.042;2022-07-05T00:22:50;102199.91;;;15.08;70.79
48404;BME280;34202;52.536;6.042;2022-07-05T00:27:50;102205.79;;;15.00;70.78
48404;BME280;34202;52.536;6.042;2022-07-05T00:32:53;102213.60;;;14.93;70.86
48404;BME280;34202;52.536;6.042;2022-07-05T00:37:53;102206.70;;;14.86;71.39
48404;BME280;34202;52.536;6.042;2022-07-05T00:42:54;102206.65;;;14.81;71.58
48404;BME280;34202;52.536;6.042;2022-07-05T00:47:54;102202.39;;;14.77;71.75
48404;BME280;34202;52.536;6.042;2022-07-05T00:52:55;102206.00;;;14.71;71.75
48404;BME280;34202;52.536;6.042;2022-07-05T00:57:56;102202.79;;;14.65;71.91
48404;BME280;34202;52.536;6.042;2022-07-05T01:02:56;102202.38;;;14.60;72.36
48404;BME280;34202;52.536;6.042;2022-07-05T01:07:59;102203.86;;;14.56;72.33
48404;BME280;34202;52.536;6.042;2022-07-05T01:13:00;102206.61;;;14.50;72.41
48404;BME280;34202;52.536;6.042;2022-07-05T01:18:01;102205.51;;;14.46;72.86
48404;BME280;34202;52.536;6.042;2022-07-05T01:23:02;102205.45;;;14.42;73.18
48404;BME280;34202;52.536;6.042;2022-07-05T01:28:03;102201.91;;;14.38;73.27
48404;BME280;34202;52.536;6.042;2022-07-05T01:33:05;102202.35;;;14.32;73.57
48404;BME280;34202;52.536;6.042;2022-07-05T01:38:06;102207.34;;;14.25;73.34
48404;BME280;34202;52.536;6.042;2022-07-05T01:43:06;102199.05;;;14.21;74.09
48404;BME280;34202;52.536;6.042;2022-07-05T01:48:11;102204.10;;;14.18;74.36
48404;BME280;34202;52.536;6.042;2022-07-05T01:53:23;102201.77;;;14.16;74.78
48404;BME280;34202;52.536;6.042;2022-07-05T01:58:25;102204.05;;;14.14;75.12
48404;BME280;34202;52.536;6.042;2022-07-05T02:03:26;102201.39;;;14.13;75.57
48404;BME280;34202;52.536;6.042;2022-07-05T02:08:30;102201.38;;;14.12;75.46
48404;BME280;34202;52.536;6.042;2022-07-05T02:13:30;102199.62;;;14.11;75.56
48404;BME280;34202;52.536;6.042;2022-07-05T02:18:31;102198.75;;;14.11;75.39
48404;BME280;34202;52.536;6.042;2022-07-05T02:23:31;102198.22;;;14.12;75.01
48404;BME280;34202;52.536;6.042;2022-07-05T02:28:31;102194.55;;;14.11;75.11
48404;BME280;34202;52.536;6.042;2022-07-05T02:33:32;102194.19;;;14.11;75.14
48404;BME280;34202;52.536;6.042;2022-07-05T02:38:32;102196.10;;;14.09;74.99
48404;BME280;34202;52.536;6.042;2022-07-05T02:43:36;102196.58;;;14.07;74.97
48404;BME280;34202;52.536;6.042;2022-07-05T02:48:37;102196.04;;;14.05;75.18
48404;BME280;34202;52.536;6.042;2022-07-05T02:53:38;102195.48;;;14.03;74.99
48404;BME280;34202;52.536;6.042;2022-07-05T02:58:38;102194.23;;;14.01;75.07
48404;BME280;34202;52.536;6.042;2022-07-05T03:03:38;102198.02;;;13.97;74.83
48404;BME280;34202;52.536;6.042;2022-07-05T03:08:40;102197.95;;;13.92;75.54
48404;BME280;34202;52.536;6.042;2022-07-05T03:13:41;102200.20;;;13.90;75.93
48404;BME280;34202;52.536;6.042;2022-07-05T03:18:42;102204.70;;;13.87;76.02
48404;BME280;34202;52.536;6.042;2022-07-05T03:23:42;102208.48;;;13.83;75.97
48404;BME280;34202;52.536;6.042;2022-07-05T03:28:42;102212.46;;;13.80;75.79
48404;BME280;34202;52.536;6.042;2022-07-05T03:33:43;102224.88;;;13.78;76.26
48404;BME280;34202;52.536;6.042;2022-07-05T03:38:43;102225.17;;;13.76;76.26
48404;BME280;34202;52.536;6.042;2022-07-05T03:43:43;102223.27;;;13.77;76.50
48404;BME280;34202;52.536;6.042;2022-07-05T03:48:44;102223.64;;;13.78;76.60
48404;BME280;34202;52.536;6.042;2022-07-05T03:53:44;102228.39;;;13.80;76.88
48404;BME280;34202;52.536;6.042;2022-07-05T03:58:46;102228.06;;;13.81;76.77
48404;BME280;34202;52.536;6.042;2022-07-05T04:03:47;102224.95;;;13.84;76.86
48404;BME280;34202;52.536;6.042;2022-07-05T04:08:48;102238.48;;;13.87;77.05
48404;BME280;34202;52.536;6.042;2022-07-05T04:13:48;102243.44;;;13.90;77.29
48404;BME280;34202;52.536;6.042;2022-07-05T04:18:48;102242.43;;;13.94;77.32
48404;BME280;34202;52.536;6.042;2022-07-05T04:23:49;102247.23;;;13.98;77.45
48404;BME280;34202;52.536;6.042;2022-07-05T04:28:49;102244.67;;;14.02;77.54
48404;BME280;34202;52.536;6.042;2022-07-05T04:33:49;102245.09;;;14.07;77.68
48404;BME280;34202;52.536;6.042;2022-07-05T04:38:50;102240.94;;;14.12;77.99
48404;BME280;34202;52.536;6.042;2022-07-05T04:43:51;102241.17;;;14.16;78.04
48404;BME280;34202;52.536;6.042;2022-07-05T04:48:51;102244.23;;;14.22;78.03
48404;BME280;34202;52.536;6.042;2022-07-05T04:53:51;102243.10;;;14.28;78.44
48404;BME280;34202;52.536;6.042;2022-07-05T04:58:52;102243.01;;;14.34;78.53
48404;BME280;34202;52.536;6.042;2022-07-05T05:03:52;102243.98;;;14.42;79.05
48404;BME280;34202;52.536;6.042;2022-07-05T05:08:52;102245.13;;;14.49;79.30
48404;BME280;34202;52.536;6.042;2022-07-05T05:13:53;102245.10;;;14.58;79.30
48404;BME280;34202;52.536;6.042;2022-07-05T05:18:53;102245.55;;;14.66;79.57
48404;BME280;34202;52.536;6.042;2022-07-05T05:23:53;102250.58;;;14.76;79.61
48404;BME280;34202;52.536;6.042;2022-07-05T05:28:54;102248.58;;;14.85;79.59
48404;BME280;34202;52.536;6.042;2022-07-05T05:33:54;102250.77;;;14.94;79.78
48404;BME280;34202;52.536;6.042;2022-07-05T05:38:54;102253.48;;;15.01;80.05
48404;BME280;34202;52.536;6.042;2022-07-05T05:43:55;102261.11;;;15.09;80.10
48404;BME280;34202;52.536;6.042;2022-07-05T05:48:55;102258.05;;;15.19;80.45
48404;BME280;34202;52.536;6.042;2022-07-05T05:53:55;102264.11;;;15.28;80.55
48404;BME280;34202;52.536;6.042;2022-07-05T05:58:56;102270.16;;;15.37;80.58
48404;BME280;34202;52.536;6.042;2022-07-05T06:03:56;102273.95;;;15.48;80.94
48404;BME280;34202;52.536;6.042;2022-07-05T06:08:56;102274.78;;;15.62;81.30
48404;BME280;34202;52.536;6.042;2022-07-05T06:13:57;102275.64;;;15.80;81.74
48404;BME280;34202;52.536;6.042;2022-07-05T06:18:57;102279.31;;;15.99;81.83
48404;BME280;34202;52.536;6.042;2022-07-05T06:23:58;102278.38;;;16.17;81.63
48404;BME280;34202;52.536;6.042;2022-07-05T06:28:58;102279.04;;;16.38;81.49
48404;BME280;34202;52.536;6.042;2022-07-05T06:33:59;102281.79;;;16.60;81.30
48404;BME280;34202;52.536;6.042;2022-07-05T06:38:59;102287.34;;;16.81;81.03
48404;BME280;34202;52.536;6.042;2022-07-05T06:43:59;102291.81;;;17.03;80.73
48404;BME280;34202;52.536;6.042;2022-07-05T06:49:00;102297.54;;;17.29;80.60
48404;BME280;34202;52.536;6.042;2022-07-05T06:54:02;102298.42;;;17.53;80.29
48404;BME280;34202;52.536;6.042;2022-07-05T06:59:02;102299.51;;;17.79;79.75
48404;BME280;34202;52.536;6.042;2022-07-05T07:04:03;102305.34;;;18.05;78.76
48404;BME280;34202;52.536;6.042;2022-07-05T07:09:03;102302.83;;;18.33;77.39
48404;BME280;34202;52.536;6.042;2022-07-05T07:14:20;102308.73;;;18.61;76.16
48404;BME280;34202;52.536;6.042;2022-07-05T07:19:21;102312.02;;;18.85;75.53
48404;BME280;34202;52.536;6.042;2022-07-05T07:24:21;102307.86;;;19.11;74.76
48404;BME280;34202;52.536;6.042;2022-07-05T07:29:23;102312.80;;;19.37;73.65
48404;BME280;34202;52.536;6.042;2022-07-05T07:34:24;102309.48;;;19.59;72.70
48404;BME280;34202;52.536;6.042;2022-07-05T07:39:26;102313.58;;;19.80;71.31
48404;BME280;34202;52.536;6.042;2022-07-05T07:44:26;102315.70;;;20.00;70.28
48404;BME280;34202;52.536;6.042;2022-07-05T07:49:27;102316.73;;;20.22;69.51
48404;BME280;34202;52.536;6.042;2022-07-05T07:54:27;102315.55;;;20.50;69.25
48404;BME280;34202;52.536;6.042;2022-07-05T07:59:27;102318.66;;;20.74;68.01
48404;BME280;34202;52.536;6.042;2022-07-05T08:04:28;102313.24;;;20.96;67.30
48404;BME280;34202;52.536;6.042;2022-07-05T08:09:30;102314.39;;;21.16;66.86
48404;BME280;34202;52.536;6.042;2022-07-05T08:14:31;102315.81;;;21.28;65.84
48404;BME280;34202;52.536;6.042;2022-07-05T08:19:31;102317.11;;;21.36;64.87
48404;BME280;34202;52.536;6.042;2022-07-05T08:24:50;102323.89;;;21.33;63.33
48404;BME280;34202;52.536;6.042;2022-07-05T08:29:50;102323.10;;;21.26;62.69
48404;BME280;34202;52.536;6.042;2022-07-05T08:34:51;102327.17;;;21.13;62.33
48404;BME280;34202;52.536;6.042;2022-07-05T08:39:51;102323.92;;;21.03;62.30
48404;BME280;34202;52.536;6.042;2022-07-05T08:44:54;102322.29;;;21.08;62.95
48404;BME280;34202;52.536;6.042;2022-07-05T08:49:55;102323.16;;;21.34;63.87
48404;BME280;34202;52.536;6.042;2022-07-05T08:54:57;102321.15;;;21.62;63.61
48404;BME280;34202;52.536;6.042;2022-07-05T08:59:58;102323.43;;;21.87;63.08
48404;BME280;34202;52.536;6.042;2022-07-05T09:04:59;102326.39;;;21.90;61.14
48404;BME280;34202;52.536;6.042;2022-07-05T09:10:01;102334.95;;;21.87;60.17
48404;BME280;34202;52.536;6.042;2022-07-05T09:15:02;102334.45;;;21.95;60.01
48404;BME280;34202;52.536;6.042;2022-07-05T09:20:08;102336.98;;;22.03;59.25
48404;BME280;34202;52.536;6.042;2022-07-05T09:25:19;102334.14;;;22.24;59.57
48404;BME280;34202;52.536;6.042;2022-07-05T09:30:33;102331.42;;;22.55;59.27
48404;BME280;34202;52.536;6.042;2022-07-05T09:35:36;102331.98;;;22.80;58.08
48404;BME280;34202;52.536;6.042;2022-07-05T09:46:04;102332.04;;;23.44;57.27
48404;BME280;34202;52.536;6.042;2022-07-05T09:51:07;102334.73;;;23.72;55.45
48404;BME280;34202;52.536;6.042;2022-07-05T09:56:08;102337.45;;;23.77;53.98
48404;BME280;34202;52.536;6.042;2022-07-05T10:06:30;102338.88;;;24.00;52.98
48404;BME280;34202;52.536;6.042;2022-07-05T10:11:31;102339.88;;;24.15;52.86
48404;BME280;34202;52.536;6.042;2022-07-05T10:16:32;102344.88;;;24.35;51.86
48404;BME280;34202;52.536;6.042;2022-07-05T10:21:33;102344.89;;;24.41;50.90
48404;BME280;34202;52.536;6.042;2022-07-05T10:26:35;102348.73;;;24.37;49.97
48404;BME280;34202;52.536;6.042;2022-07-05T10:31:37;102343.41;;;24.17;49.70
48404;BME280;34202;52.536;6.042;2022-07-05T10:36:38;102340.11;;;23.99;49.65
48404;BME280;34202;52.536;6.042;2022-07-05T10:41:40;102338.02;;;23.84;49.79
48404;BME280;34202;52.536;6.042;2022-07-05T10:46:41;102338.39;;;23.75;49.74
48404;BME280;34202;52.536;6.042;2022-07-05T10:51:43;102341.19;;;23.55;49.81
48404;BME280;34202;52.536;6.042;2022-07-05T10:57:22;102342.38;;;23.18;49.43
48404;BME280;34202;52.536;6.042;2022-07-05T11:02:26;102344.66;;;22.85;50.04
48404;BME280;34202;52.536;6.042;2022-07-05T11:07:57;102351.30;;;22.82;50.84
48404;BME280;34202;52.536;6.042;2022-07-05T11:12:57;102352.95;;;22.70;50.37
48404;BME280;34202;52.536;6.042;2022-07-05T11:18:14;102355.54;;;22.56;50.62
48404;BME280;34202;52.536;6.042;2022-07-05T11:23:26;102364.02;;;22.49;50.82
48404;BME280;34202;52.536;6.042;2022-07-05T11:28:41;102363.01;;;22.45;51.16
48404;BME280;34202;52.536;6.042;2022-07-05T11:33:43;102364.22;;;22.38;50.83
48404;BME280;34202;52.536;6.042;2022-07-05T11:44:06;102364.05;;;22.15;50.47
48404;BME280;34202;52.536;6.042;2022-07-05T11:49:08;102362.33;;;22.12;50.96
48404;BME280;34202;52.536;6.042;2022-07-05T11:54:09;102356.88;;;22.20;50.38
48404;BME280;34202;52.536;6.042;2022-07-05T11:59:19;102355.61;;;22.12;49.61
48404;BME280;34202;52.536;6.042;2022-07-05T12:04:27;102358.70;;;22.07;48.88
48404;BME280;34202;52.536;6.042;2022-07-05T12:09:29;102356.63;;;22.14;49.16
48404;BME280;34202;52.536;6.042;2022-07-05T12:14:49;102356.39;;;22.39;49.18
48404;BME280;34202;52.536;6.042;2022-07-05T12:19:51;102353.23;;;22.64;48.62
48404;BME280;34202;52.536;6.042;2022-07-05T12:24:52;102351.46;;;22.82;47.73
48404;BME280;34202;52.536;6.042;2022-07-05T12:29:53;102351.89;;;22.88;46.97
48404;BME280;34202;52.536;6.042;2022-07-05T12:34:54;102356.20;;;23.02;46.88
48404;BME280;34202;52.536;6.042;2022-07-05T12:40:05;102359.59;;;23.19;46.37
48404;BME280;34202;52.536;6.042;2022-07-05T12:45:15;102361.20;;;23.42;46.30
48404;BME280;34202;52.536;6.042;2022-07-05T12:50:16;102362.77;;;23.59;45.04
48404;BME280;34202;52.536;6.042;2022-07-05T12:55:16;102367.33;;;23.69;44.63
48404;BME280;34202;52.536;6.042;2022-07-05T13:00:35;102364.79;;;23.80;44.26
48404;BME280;34202;52.536;6.042;2022-07-05T13:05:36;102365.14;;;23.87;44.28
48404;BME280;34202;52.536;6.042;2022-07-05T13:10:45;102358.88;;;24.17;45.39
48404;BME280;34202;52.536;6.042;2022-07-05T13:15:46;102361.46;;;24.33;44.95
48404;BME280;34202;52.536;6.042;2022-07-05T13:20:46;102366.75;;;24.47;43.85
48404;BME280;34202;52.536;6.042;2022-07-05T13:25:50;102362.56;;;24.52;43.71
48404;BME280;34202;52.536;6.042;2022-07-05T13:30:50;102370.17;;;24.54;43.56
48404;BME280;34202;52.536;6.042;2022-07-05T13:35:51;102375.19;;;24.52;43.31
48404;BME280;34202;52.536;6.042;2022-07-05T13:40:51;102377.34;;;24.51;42.86
48404;BME280;34202;52.536;6.042;2022-07-05T13:45:51;102381.08;;;24.38;42.49
48404;BME280;34202;52.536;6.042;2022-07-05T13:50:52;102374.58;;;24.35;42.13
48404;BME280;34202;52.536;6.042;2022-07-05T13:55:52;102378.92;;;24.25;41.65
48404;BME280;34202;52.536;6.042;2022-07-05T14:00:52;102384.38;;;24.14;41.79
48404;BME280;34202;52.536;6.042;2022-07-05T14:05:53;102388.83;;;24.21;42.16
48404;BME280;34202;52.536;6.042;2022-07-05T14:10:55;102388.31;;;24.27;42.68
48404;BME280;34202;52.536;6.042;2022-07-05T14:15:57;102392.14;;;24.37;42.75
48404;BME280;34202;52.536;6.042;2022-07-05T14:20:57;102394.20;;;24.46;42.68
48404;BME280;34202;52.536;6.042;2022-07-05T14:25:58;102396.96;;;24.49;42.18
48404;BME280;34202;52.536;6.042;2022-07-05T14:31:00;102395.61;;;24.55;42.01
48404;BME280;34202;52.536;6.042;2022-07-05T14:36:00;102398.70;;;24.51;41.82
48404;BME280;34202;52.536;6.042;2022-07-05T14:41:01;102395.00;;;24.50;41.78
48404;BME280;34202;52.536;6.042;2022-07-05T14:46:01;102390.35;;;24.44;41.77
48404;BME280;34202;52.536;6.042;2022-07-05T14:51:01;102389.41;;;24.45;41.42
48404;BME280;34202;52.536;6.042;2022-07-05T14:56:02;102386.92;;;24.45;41.03
48404;BME280;34202;52.536;6.042;2022-07-05T15:01:02;102384.98;;;24.45;40.94
48404;BME280;34202;52.536;6.042;2022-07-05T15:06:03;102382.36;;;24.43;40.86
48404;BME280;34202;52.536;6.042;2022-07-05T15:11:03;102380.33;;;24.33;39.91
48404;BME280;34202;52.536;6.042;2022-07-05T15:16:07;102372.33;;;24.13;40.69
48404;BME280;34202;52.536;6.042;2022-07-05T15:21:07;102379.84;;;24.11;41.05
48404;BME280;34202;52.536;6.042;2022-07-05T15:26:08;102377.05;;;24.15;41.04
48404;BME280;34202;52.536;6.042;2022-07-05T15:31:08;102382.33;;;24.03;41.28
48404;BME280;34202;52.536;6.042;2022-07-05T15:36:08;102390.61;;;23.92;41.86
48404;BME280;34202;52.536;6.042;2022-07-05T15:41:09;102397.63;;;23.73;42.62
48404;BME280;34202;52.536;6.042;2022-07-05T15:46:09;102391.77;;;23.65;43.20
48404;BME280;34202;52.536;6.042;2022-07-05T15:51:10;102402.05;;;23.51;43.13
48404;BME280;34202;52.536;6.042;2022-07-05T15:56:12;102406.78;;;23.38;43.81
48404;BME280;34202;52.536;6.042;2022-07-05T16:01:13;102412.39;;;23.16;43.72
48404;BME280;34202;52.536;6.042;2022-07-05T16:06:13;102414.48;;;22.91;44.20
48404;BME280;34202;52.536;6.042;2022-07-05T16:11:13;102418.92;;;22.72;44.64
48404;BME280;34202;52.536;6.042;2022-07-05T16:16:14;102426.94;;;22.42;45.30
48404;BME280;34202;52.536;6.042;2022-07-05T16:21:17;102431.50;;;22.11;45.87
48404;BME280;34202;52.536;6.042;2022-07-05T16:26:19;102432.16;;;21.92;46.70
48404;BME280;34202;52.536;6.042;2022-07-05T16:31:20;102425.86;;;21.87;47.45
48404;BME280;34202;52.536;6.042;2022-07-05T16:36:22;102427.17;;;21.69;47.87
48404;BME280;34202;52.536;6.042;2022-07-05T16:41:23;102426.47;;;21.58;48.47
48404;BME280;34202;52.536;6.042;2022-07-05T16:46:24;102423.55;;;21.51;48.89
48404;BME280;34202;52.536;6.042;2022-07-05T16:51:26;102424.56;;;21.39;48.78
48404;BME280;34202;52.536;6.042;2022-07-05T16:56:26;102426.69;;;21.25;48.83
48404;BME280;34202;52.536;6.042;2022-07-05T17:01:27;102425.59;;;21.14;49.30
48404;BME280;34202;52.536;6.042;2022-07-05T17:06:27;102429.54;;;21.10;49.47
48404;BME280;34202;52.536;6.042;2022-07-05T17:11:28;102434.77;;;21.02;49.34
48404;BME280;34202;52.536;6.042;2022-07-05T17:16:28;102437.34;;;20.92;49.24
48404;BME280;34202;52.536;6.042;2022-07-05T17:21:28;102437.73;;;20.73;48.99
48404;BME280;34202;52.536;6.042;2022-07-05T17:26:29;102440.41;;;20.49;49.23
48404;BME280;34202;52.536;6.042;2022-07-05T17:31:30;102435.48;;;20.26;49.90
48404;BME280;34202;52.536;6.042;2022-07-05T17:36:30;102442.35;;;20.07;50.42
48404;BME280;34202;52.536;6.042;2022-07-05T17:41:31;102446.94;;;20.07;50.60
48404;BME280;34202;52.536;6.042;2022-07-05T17:46:31;102452.79;;;20.04;50.91
48404;BME280;34202;52.536;6.042;2022-07-05T17:51:32;102461.87;;;19.96;51.21
48404;BME280;34202;52.536;6.042;2022-07-05T17:56:32;102461.77;;;19.82;51.56
48404;BME280;34202;52.536;6.042;2022-07-05T18:01:32;102464.86;;;19.63;51.71
48404;BME280;34202;52.536;6.042;2022-07-05T18:06:33;102459.98;;;19.51;51.90
48404;BME280;34202;52.536;6.042;2022-07-05T18:11:33;102469.00;;;19.46;52.04
48404;BME280;34202;52.536;6.042;2022-07-05T18:16:33;102466.38;;;19.40;52.01
48404;BME280;34202;52.536;6.042;2022-07-05T18:21:34;102472.41;;;19.29;51.96
48404;BME280;34202;52.536;6.042;2022-07-05T18:26:35;102477.56;;;19.22;52.34
48404;BME280;34202;52.536;6.042;2022-07-05T18:31:36;102479.02;;;19.12;52.45
48404;BME280;34202;52.536;6.042;2022-07-05T18:36:36;102478.33;;;19.03;52.52
48404;BME280;34202;52.536;6.042;2022-07-05T18:41:37;102482.41;;;18.94;52.24
48404;BME280;34202;52.536;6.042;2022-07-05T18:46:38;102484.36;;;18.89;52.38
48404;BME280;34202;52.536;6.042;2022-07-05T18:51:38;102478.88;;;18.77;52.01
48404;BME280;34202;52.536;6.042;2022-07-05T18:56:39;102478.00;;;18.66;52.35
48404;BME280;34202;52.536;6.042;2022-07-05T19:01:39;102483.83;;;18.54;52.30
48404;BME280;34202;52.536;6.042;2022-07-05T19:06:41;102480.48;;;18.42;52.66
48404;BME280;34202;52.536;6.042;2022-07-05T19:12:00;102480.65;;;18.34;53.10
48404;BME280;34202;52.536;6.042;2022-07-05T19:17:19;102482.05;;;18.28;53.14
48404;BME280;34202;52.536;6.042;2022-07-05T19:22:20;102483.11;;;18.23;53.45
48404;BME280;34202;52.536;6.042;2022-07-05T19:27:23;102485.92;;;18.15;53.62
48404;BME280;34202;52.536;6.042;2022-07-05T19:32:23;102486.26;;;18.07;53.85
48404;BME280;34202;52.536;6.042;2022-07-05T19:37:24;102488.35;;;17.95;54.07
48404;BME280;34202;52.536;6.042;2022-07-05T19:42:25;102493.09;;;17.88;54.34
48404;BME280;34202;52.536;6.042;2022-07-05T19:47:26;102493.90;;;17.76;54.55
48404;BME280;34202;52.536;6.042;2022-07-05T19:52:27;102495.79;;;17.63;54.71
48404;BME280;34202;52.536;6.042;2022-07-05T19:57:28;102501.06;;;17.57;55.06
48404;BME280;34202;52.536;6.042;2022-07-05T20:02:29;102510.00;;;17.50;55.37
48404;BME280;34202;52.536;6.042;2022-07-05T20:07:29;102509.79;;;17.42;55.67
48404;BME280;34202;52.536;6.042;2022-07-05T20:12:29;102514.50;;;17.33;56.01
48404;BME280;34202;52.536;6.042;2022-07-05T20:17:30;102511.99;;;17.27;56.34
48404;BME280;34202;52.536;6.042;2022-07-05T20:22:30;102517.77;;;17.19;56.62
48404;BME280;34202;52.536;6.042;2022-07-05T20:27:32;102520.88;;;17.12;56.88
48404;BME280;34202;52.536;6.042;2022-07-05T20:32:32;102524.19;;;17.07;57.15
48404;BME280;34202;52.536;6.042;2022-07-05T20:37:32;102530.16;;;17.04;57.45
48404;BME280;34202;52.536;6.042;2022-07-05T20:42:33;102526.80;;;17.00;57.75
48404;BME280;34202;52.536;6.042;2022-07-05T20:47:33;102537.67;;;16.97;57.96
48404;BME280;34202;52.536;6.042;2022-07-05T20:52:33;102542.91;;;16.92;58.34
48404;BME280;34202;52.536;6.042;2022-07-05T20:57:34;102541.30;;;16.89;58.54
48404;BME280;34202;52.536;6.042;2022-07-05T21:02:34;102544.83;;;16.88;58.76
48404;BME280;34202;52.536;6.042;2022-07-05T21:07:35;102550.59;;;16.87;58.63
48404;BME280;34202;52.536;6.042;2022-07-05T21:12:36;102554.27;;;16.85;58.70
48404;BME280;34202;52.536;6.042;2022-07-05T21:17:37;102558.48;;;16.82;59.15
48404;BME280;34202;52.536;6.042;2022-07-05T21:22:41;102562.81;;;16.78;59.48
48404;BME280;34202;52.536;6.042;2022-07-05T21:27:42;102564.71;;;16.73;59.58
48404;BME280;34202;52.536;6.042;2022-07-05T21:32:43;102578.05;;;16.70;59.95
48404;BME280;34202;52.536;6.042;2022-07-05T21:37:43;102577.64;;;16.66;60.09
48404;BME280;34202;52.536;6.042;2022-07-05T21:42:43;102577.09;;;16.61;60.41
48404;BME280;34202;52.536;6.042;2022-07-05T21:47:44;102577.38;;;16.56;60.71
48404;BME280;34202;52.536;6.042;2022-07-05T21:52:44;102579.44;;;16.51;60.87
48404;BME280;34202;52.536;6.042;2022-07-05T21:57:44;102582.90;;;16.45;61.20
48404;BME280;34202;52.536;6.042;2022-07-05T22:02:45;102590.75;;;16.40;61.54
48404;BME280;34202;52.536;6.042;2022-07-05T22:08:04;102592.06;;;16.32;61.70
48404;BME280;34202;52.536;6.042;2022-07-05T22:13:04;102595.17;;;16.26;61.75
48404;BME280;34202;52.536;6.042;2022-07-05T22:18:05;102593.19;;;16.21;62.21
48404;BME280;34202;52.536;6.042;2022-07-05T22:23:05;102592.25;;;16.15;62.52
48404;BME280;34202;52.536;6.042;2022-07-05T22:28:05;102587.77;;;16.09;62.71
48404;BME280;34202;52.536;6.042;2022-07-05T22:33:06;102586.14;;;16.04;63.02
48404;BME280;34202;52.536;6.042;2022-07-05T22:38:06;102587.63;;;15.97;63.01
48404;BME280;34202;52.536;6.042;2022-07-05T22:43:06;102589.17;;;15.93;63.52
48404;BME280;34202;52.536;6.042;2022-07-05T22:48:06;102584.71;;;15.88;63.52
48404;BME280;34202;52.536;6.042;2022-07-05T22:53:07;102580.99;;;15.85;63.86
48404;BME280;34202;52.536;6.042;2022-07-05T22:58:07;102581.33;;;15.84;63.78
48404;BME280;34202;52.536;6.042;2022-07-05T23:03:11;102583.25;;;15.83;63.48
48404;BME280;34202;52.536;6.042;2022-07-05T23:08:11;102584.47;;;15.82;63.73
48404;BME280;34202;52.536;6.042;2022-07-05T23:13:12;102592.00;;;15.81;63.73
48404;BME280;34202;52.536;6.042;2022-07-05T23:18:12;102591.45;;;15.79;64.04
48404;BME280;34202;52.536;6.042;2022-07-05T23:23:12;102595.11;;;15.78;64.12
48404;BME280;34202;52.536;6.042;2022-07-05T23:28:13;102595.63;;;15.76;63.75
48404;BME280;34202;52.536;6.042;2022-07-05T23:33:14;102592.95;;;15.74;63.66
48404;BME280;34202;52.536;6.042;2022-07-05T23:38:14;102590.98;;;15.72;63.91
48404;BME280;34202;52.536;6.042;2022-07-05T23:43:14;102592.53;;;15.71;65.01
48404;BME280;34202;52.536;6.042;2022-07-05T23:48:15;102584.41;;;15.67;64.44
48404;BME280;34202;52.536;6.042;2022-07-05T23:53:15;102580.69;;;15.65;65.10
48404;BME280;34202;52.536;6.042;2022-07-05T23:58:15;102580.47;;;15.61;64.79
